• Join FlightAware (Why Join?)
  • Login
  • US Flag GB Flag 
18:08 EST


 

Airport Tracker/Info


-or-


 

Live Flight TrackerFlight Track Log ✈ EJA922 ✈ 26-Jun-2013 ✈ KTPA - KARR

Flight Track Log - Related Links

Times and Time Zones

All times are in EDT time to prevent confusion due to time zone crossing. See the EJA922 flight status page for this flight to view local times or setup timezone preferences in your user account.

Time Position Orientation Groundspeed Altitude Reporting Facility
EDT Latitude Longitude Course Direction KTS MPH feet Rate Location/Type
12:25 27.8833 -82.5833 211° Southwest 239 275 6,500  Level Tampa TRACON
12:26 27.9333 -82.6333 319° Northwest 254 292 10,200 2,400 Climbing Tampa TRACON
12:28 28.1331 -82.6947 345° North 324 373 14,100 1,860 Climbing Jacksonville Center
12:29 28.2417 -82.7300 344° North 376 433 16,200 1,800 Climbing Jacksonville Center
12:30 28.3461 -82.7653 343° North 387 445 17,800 1,560 Climbing Jacksonville Center
12:31 28.4567 -82.7933 347° North 392 451 19,400 1,500 Climbing Jacksonville Center
12:32 28.5694 -82.8144 351° North 404 465 20,800 1,380 Climbing Jacksonville Center
12:33 28.6819 -82.8547 343° North 409 471 22,200 1,140 Climbing Jacksonville Center
12:34 28.7886 -82.9069 337° Northwest 416 479 23,100 1,020 Climbing Jacksonville Center
12:35 28.8992 -82.9614 337° Northwest 426 490 24,300 1,200 Climbing Jacksonville Center
12:36 29.0158 -83.0161 338° Northwest 432 497 25,500 1,080 Climbing Jacksonville Center
12:37 29.1328 -83.0636 340° North 443 510 26,500 960 Climbing Jacksonville Center
12:38 29.2558 -83.1139 340° North 453 521 27,500 1,080 Climbing Jacksonville Center
12:39 29.3769 -83.1475 346° North 453 521 28,700 1,500 Climbing Jacksonville Center
12:40 29.5064 -83.1717 351° North 453 521 30,500 1,800 Climbing Jacksonville Center
12:41 29.6336 -83.1842 355° North 459 528 32,300 1,800 Climbing Jacksonville Center
12:42 29.7547 -83.1892 358° North 454 522 34,100 1,500 Climbing Jacksonville Center
12:43 29.8756 -83.2158 349° North 447 514 35,400 1,200 Climbing Jacksonville Center
12:44 30.0031 -83.2572 344° North 454 522 36,600 1,080 Climbing Jacksonville Center
12:45 30.1197 -83.2911 346° North 454 522 37,600 1,380 Climbing Jacksonville Center
12:46 30.2450 -83.3303 345° North 459 528 39,400 1,200 Climbing Jacksonville Center
12:47 30.3722 -83.3717 344° North 459 528 40,000 300 Climbing Jacksonville Center
12:48 30.5078 -83.4133 345° North 476 548 40,000  Level Jacksonville Center
12:49 30.6431 -83.4553 345° North 490 564 40,000  Level Jacksonville Center
12:50 30.7828 -83.4994 345° North 502 578 40,000  Level Jacksonville Center
12:51 30.9142 -83.5414 345° North 497 572 40,000  Level Jacksonville Center
12:52 31.0497 -83.5861 344° North 497 572 40,000  Level Jacksonville Center
12:53 31.1872 -83.6308 344° North 497 572 40,000  Level Jacksonville Center
12:55 31.5125 -83.7369 344° North 501 577 40,000  Level Atlanta Center
12:56 31.6461 -83.7803 345° North 495 570 40,000  Level Atlanta Center
12:57 31.7756 -83.8239 344° North 500 575 40,000  Level Atlanta Center
12:58 31.9156 -83.8653 346° North 513 590 40,000  Level Atlanta Center
12:59 32.0533 -83.9114 344° North 513 590 40,000  Level Atlanta Center
13:00 32.1892 -83.9556 345° North 513 590 40,000  Level Atlanta Center
13:01 32.3228 -83.9994 344° North 508 585 40,000  Level Atlanta Center
13:02 32.4606 -84.0439 345° North 503 579 40,000  Level Atlanta Center
13:04 32.5939 -84.0882 344° North  Level FlightAware Approximate
13:04 32.7400 -84.1400 344° North 497 572 40,000  Level Atlanta Center
13:05 32.8758 -84.1847 345° North 497 572 40,000  Level Atlanta Center
13:06 33.0092 -84.2319 343° North 497 572 40,000  Level Atlanta Center
13:07 33.1281 -84.2719 344° North 492 566 40,000  Level Atlanta Center
13:08 33.2617 -84.3147 345° North 492 566 40,000  Level Atlanta Center
13:09 33.3931 -84.3597 344° North 492 566 40,000  Level Atlanta Center
13:10 33.5225 -84.4025 345° North 492 566 40,000  Level Atlanta Center
13:11 33.6600 -84.4456 345° North 494 568 40,000  Level Atlanta Center
13:12 33.7914 -84.4761 349° North 494 568 40,000  Level Atlanta Center
13:13 33.9289 -84.5069 349° North 489 563 40,000  Level Atlanta Center
13:14 34.0769 -84.5453 348° North 494 568 40,000  Level Atlanta Center
13:15 34.2064 -84.5764 349° North 508 585 40,000  Level Atlanta Center
13:16 34.3397 -84.6072 349° North 503 579 40,000  Level Atlanta Center
13:17 34.4753 -84.6411 348° North 498 573 40,000  Level Atlanta Center
13:18 34.6086 -84.6722 349° North 492 566 40,000  Level Atlanta Center
13:19 34.7525 -84.7111 347° North 480 552 40,000  Level Atlanta Center
13:20 34.8900 -84.7453 348° North 480 552 40,000  Level Atlanta Center
13:21 35.0256 -84.7794 348° North 492 566 40,000  Level Atlanta Center
13:22 35.1608 -84.8136 348° North 492 566 40,000 300 Level Atlanta Center
13:23 35.2797 -84.8428 349° North 486 559 40,600 840 Climbing Atlanta Center
13:24 35.4086 -84.8769 348° North 481 554 41,700 1,020 Climbing Atlanta Center
13:25 35.5336 -84.9089 348° North 469 540 42,700 600 Climbing Atlanta Center
13:26 35.6586 -84.9411 348° North 462 532 43,000 120 Climbing Atlanta Center
13:27 35.7897 -84.9706 350° North 462 532 43,000  Level Atlanta Center
13:28 35.9211 -85.0028 349° North 471 542 43,000  Level Atlanta Center
13:29 36.0022 -85.0258 347° North 475 547 43,000  Level Indianapolis Center
13:30 36.1331 -85.0583 349° North 476 548 43,000  Level Indianapolis Center
13:31 36.2633 -85.0925 348° North 476 548 43,000  Level Indianapolis Center
13:32 36.3939 -85.1250 349° North 478 550 43,000  Level Indianapolis Center
13:33 36.5256 -85.1592 348° North 482 555 43,000  Level Indianapolis Center
13:34 36.6572 -85.1933 348° North 482 555 43,000  Level Indianapolis Center
13:35 36.7897 -85.2269 349° North 484 557 43,000  Level Indianapolis Center
13:36 36.9208 -85.2631 348° North 484 557 43,000  Level Indianapolis Center
13:37 37.0669 -85.3006 348° North 481 554 43,000  Level Indianapolis Center
13:38 37.2000 -85.3353 348° North 485 558 43,000  Level Indianapolis Center
13:39 37.3322 -85.3706 348° North 487 560 43,000  Level Indianapolis Center
13:40 37.4661 -85.4064 348° North 490 564 43,000  Level Indianapolis Center
13:41 37.6206 -85.4489 348° North 487 560 43,000 -720 Level Indianapolis Center
13:42 37.7531 -85.4853 348° North 487 560 41,600 -1,620 Descending Indianapolis Center
13:43 37.8700 -85.5156 348° North 492 566 39,800 -2,160 Descending Indianapolis Center
13:44 38.0294 -85.5583 348° North 488 562 37,200 -2,100 Descending Indianapolis Center
13:46 38.1642 -85.6128 342° North 511 588 35,100 -2,100 Descending Indianapolis Center
13:47 38.3197 -85.7044 335° Northwest 513 590 32,600 -1,500 Descending Indianapolis Center
13:48 38.4503 -85.7822 335° Northwest 516 594 32,000 -300 Descending Indianapolis Center
13:49 38.5792 -85.8589 335° Northwest 513 590 32,000  Level Indianapolis Center
13:50 38.7058 -85.9336 335° Northwest 506 582 32,000 -600 Level Indianapolis Center
13:51 38.8328 -86.0097 335° Northwest 503 579 30,800 -1,260 Descending Indianapolis Center
13:52 38.9594 -86.0853 335° Northwest 500 575 29,500 -900 Descending Indianapolis Center
13:53 39.1089 -86.1753 335° Northwest 496 571 29,000 -540 Descending Indianapolis Center
13:54 39.2283 -86.2478 335° Northwest 480 552 28,500 -840 Descending Indianapolis Center
13:55 39.3483 -86.3200 335° Northwest 475 547 27,300 -1,200 Descending Indianapolis Center
13:56 39.4706 -86.3956 334° Northwest 482 555 26,100 -660 Descending Indianapolis Center
13:57 39.5908 -86.4686 335° Northwest 473 544 26,000 -60 Descending Indianapolis Center
13:58 39.7092 -86.5422 334° Northwest 465 535 26,000  Level Indianapolis Center
13:59 39.8242 -86.6181 333° Northwest 458 527 26,000  Level Indianapolis Center
14:00 39.9333 -86.7053 329° Northwest 457 526 26,000 -180 Level Indianapolis Center
14:01 40.0433 -86.7928 329° Northwest 460 529 25,700 -780 Descending Indianapolis Center
14:02 40.1569 -86.8842 328° Northwest 476 548 24,500 -1,020 Descending Indianapolis Center
14:03 40.2958 -86.9961 328° Northwest 487 560 23,600 -1,080 Descending Indianapolis Center
14:04 40.4078 -87.0853 329° Northwest 474 545 22,400 -1,260 Descending Indianapolis Center
14:05 40.5189 -87.1747 329° Northwest 470 541 21,100 -1,380 Descending Indianapolis Center
14:06 40.6269 -87.2631 328° Northwest 459 528 19,600 -1,560 Descending Indianapolis Center
14:07 40.7281 -87.3444 329° Northwest 436 502 18,000 -1,560 Descending Indianapolis Center
14:08 40.8289 -87.4281 328° Northwest 429 494 16,500 -1,500 Descending Indianapolis Center
14:09 40.9250 -87.5011 330° Northwest 409 471 14,900 -1,680 Descending Indianapolis Center
14:10 41.0294 -87.5892 328° Northwest 384 442 13,100 -1,620 Descending Indianapolis Center
14:11 41.1131 -87.6625 327° Northwest 371 427 11,600 -1,500 Descending Indianapolis Center
14:12 41.1861 -87.7189 330° Northwest 331 381 10,100 -1,500 Descending Indianapolis Center